Lacombe, Canada
Current Conditions -  °F | °C
As of 1:00 PM on Sunday 21 Dec 2014 (Local Time) from CYQF Reporting Station
Broken Clouds Broken Clouds  
Wind Chill: 28°   Ceiling: 15000
Heat Index: 28°   Visibility: 15mi
Dew Point: 21°   Wind: 2mph
Humidity: 74%   Direction: 240°WSW
Pressure: 29.38"   Gusts: NA
Location:  52.47°N, 113.73°W
Report Text: CYQF 212000Z 24002KT 15SM SCT080 BKN150 BKN230 M02/M06 A2938 RMK AC3AC2CI2 SLP994
Loading
Personal Weather Stations






























Interactive Weather Map New forecast layout! Learn more

10-Day Weather Forecast

Advertisements
Track Severe Weather on mobile